createdAt,value
2023-01-12T00:03:18.450Z,25.40
2023-01-12T00:13:19.988Z,25.07
2023-01-12T00:23:21.499Z,25.73
2023-01-12T00:33:23.031Z,22.63
2023-01-12T00:43:24.533Z,23.53
2023-01-12T00:53:26.568Z,22.47
2023-01-12T01:03:28.669Z,22.70
2023-01-12T01:13:30.693Z,25.73
2023-01-12T01:23:36.364Z,22.63
2023-01-12T01:33:38.164Z,28.27
2023-01-12T01:44:08.872Z,21.57
2023-01-12T01:54:10.707Z,22.43
2023-01-12T02:04:12.803Z,22.33
2023-01-12T02:14:15.254Z,21.67
2023-01-12T02:24:28.560Z,24.17
2023-01-12T02:35:00.723Z,25.37
2023-01-12T02:45:07.947Z,25.90
2023-01-12T02:55:10.455Z,28.50
2023-01-12T03:05:12.113Z,24.67
2023-01-12T03:15:16.403Z,24.07
2023-01-12T03:25:18.568Z,31.97
2023-01-12T03:35:26.347Z,23.40
2023-01-12T03:45:38.896Z,24.08
2023-01-12T03:55:42.385Z,23.53
2023-01-12T04:05:45.113Z,24.43
2023-01-12T04:15:47.723Z,28.92
2023-01-12T04:25:49.299Z,28.10
2023-01-12T04:35:50.841Z,28.20
2023-01-12T04:45:52.348Z,23.20
2023-01-12T04:55:53.991Z,30.63
2023-01-12T05:05:55.488Z,22.50
2023-01-12T05:15:57.120Z,21.80
2023-01-12T05:26:03.382Z,23.77
2023-01-12T05:36:13.235Z,24.13
2023-01-12T05:46:16.027Z,22.03
2023-01-12T05:56:26.203Z,28.80
2023-01-12T06:06:29.388Z,27.90
2023-01-12T06:16:30.915Z,26.07
2023-01-12T06:26:32.457Z,25.73
2023-01-12T06:36:33.990Z,28.63
2023-01-12T06:46:35.544Z,23.37
2023-01-12T06:56:37.097Z,22.00
2023-01-12T07:06:38.647Z,22.50
2023-01-12T07:16:40.198Z,20.93
2023-01-12T07:26:41.808Z,23.77
2023-01-12T07:36:44.939Z,22.50
2023-01-12T07:46:46.506Z,20.80
2023-01-12T07:56:48.399Z,18.17
2023-01-12T08:06:49.994Z,13.47
2023-01-12T08:16:52.443Z,19.65
2023-01-12T08:26:58.319Z,12.70
2023-01-12T08:37:02.549Z,14.93
2023-01-12T08:47:05.989Z,15.30
2023-01-12T08:57:07.593Z,12.87
2023-01-12T09:07:10.825Z,9.55
2023-01-12T09:17:12.340Z,10.10
2023-01-12T09:27:13.888Z,11.07
2023-01-12T09:37:16.345Z,10.63
2023-01-12T09:47:38.779Z,18.30
2023-01-12T09:58:21.658Z,16.67
2023-01-12T10:08:56.711Z,13.50
2023-01-12T10:19:04.403Z,23.07
2023-01-12T10:29:10.102Z,22.60
2023-01-12T10:39:26.638Z,16.80
2023-01-12T10:49:28.162Z,15.30
2023-01-12T10:59:33.093Z,14.00
2023-01-12T11:09:34.661Z,24.87
2023-01-12T11:19:41.360Z,18.30
2023-01-12T11:29:45.707Z,17.90
2023-01-12T11:39:51.320Z,16.95
2023-01-12T11:50:01.958Z,21.87
2023-01-12T12:00:18.469Z,18.67
2023-01-12T12:10:26.411Z,20.03
2023-01-12T12:21:03.928Z,20.27
2023-01-12T12:31:30.526Z,25.92
2023-01-12T12:41:51.439Z,23.50
2023-01-12T12:51:55.266Z,31.20
2023-01-12T13:02:01.644Z,29.80
2023-01-12T13:12:03.213Z,31.00
2023-01-12T13:22:18.520Z,29.13
2023-01-12T13:32:23.212Z,30.80
2023-01-12T13:42:27.617Z,29.97
2023-01-12T13:52:32.148Z,29.13
2023-01-12T14:02:34.208Z,38.67
2023-01-12T14:13:09.638Z,27.13
2023-01-12T14:23:15.678Z,24.87
2023-01-12T14:33:19.384Z,26.13
2023-01-12T14:43:21.045Z,28.53
2023-01-12T14:53:32.423Z,34.73
2023-01-12T15:03:43.264Z,32.15
2023-01-12T15:13:56.532Z,36.23
2023-01-12T15:23:58.126Z,37.13
2023-01-12T15:34:00.779Z,34.23
2023-01-12T15:44:02.377Z,29.13
2023-01-12T15:54:04.665Z,30.75
2023-01-12T16:04:40.309Z,33.47
2023-01-12T16:14:46.323Z,39.00
2023-01-12T16:24:48.912Z,39.60
2023-01-12T16:34:50.505Z,36.27
2023-01-12T16:44:52.006Z,36.35
2023-01-12T16:54:53.550Z,39.23
2023-01-12T17:04:55.096Z,47.10
2023-01-12T17:14:56.812Z,44.37
2023-01-12T17:24:58.751Z,38.63
2023-01-12T17:35:00.805Z,40.33
2023-01-12T17:45:03.502Z,56.03
2023-01-12T17:55:05.620Z,46.23
2023-01-12T18:05:07.738Z,44.07
2023-01-12T18:15:10.229Z,41.40
2023-01-12T18:25:11.774Z,43.95
2023-01-12T18:35:13.288Z,39.90
2023-01-12T18:45:14.962Z,40.33
2023-01-12T18:55:16.463Z,40.23
2023-01-12T19:05:18.129Z,43.30
2023-01-12T19:15:19.698Z,42.22
2023-01-12T19:25:23.217Z,37.23
2023-01-12T19:35:24.861Z,46.37
2023-01-12T19:45:26.395Z,38.15
2023-01-12T19:55:27.890Z,35.47
2023-01-12T20:05:29.498Z,38.80
2023-01-12T20:15:32.527Z,38.73
2023-01-12T20:25:34.426Z,35.43
2023-01-12T20:35:36.604Z,35.20
2023-01-12T20:45:40.576Z,39.53
2023-01-12T20:55:49.150Z,41.27
2023-01-12T21:05:50.717Z,39.10
2023-01-12T21:16:02.699Z,37.00
2023-01-12T21:26:04.580Z,36.22
2023-01-12T21:36:06.625Z,33.07
2023-01-12T21:46:10.427Z,35.27
2023-01-12T21:56:13.421Z,35.67
2023-01-12T22:06:14.971Z,27.10
2023-01-12T22:16:16.778Z,26.67
2023-01-12T22:26:19.316Z,31.37
2023-01-12T22:36:21.245Z,28.33
2023-01-12T22:46:24.993Z,25.73
2023-01-12T22:56:26.609Z,24.27
2023-01-12T23:06:28.176Z,29.30
2023-01-12T23:16:29.722Z,23.40
2023-01-12T23:26:32.575Z,21.40
2023-01-12T23:36:34.104Z,22.27
2023-01-12T23:46:38.439Z,25.73
2023-01-12T23:56:39.960Z,23.33
